createdAt,value
2018-03-23T00:00:29.193Z,1005.78
2018-03-23T00:01:29.113Z,1005.74
2018-03-23T00:02:29.035Z,1005.74
2018-03-23T00:03:28.956Z,1005.80
2018-03-23T00:04:28.878Z,1005.78
2018-03-23T00:05:28.820Z,1005.75
2018-03-23T00:06:28.719Z,1005.76
2018-03-23T00:07:28.655Z,1005.71
2018-03-23T00:08:28.559Z,1005.71
2018-03-23T00:09:28.482Z,1005.73
2018-03-23T00:10:28.404Z,1005.74
2018-03-23T00:11:28.325Z,1005.72
2018-03-23T00:12:28.246Z,1005.72
2018-03-23T00:13:28.166Z,1005.75
2018-03-23T00:14:28.092Z,1005.65
2018-03-23T00:15:28.009Z,1005.70
2018-03-23T00:16:27.930Z,1005.66
2018-03-23T00:17:27.851Z,1005.63
2018-03-23T00:18:27.772Z,1005.64
2018-03-23T00:19:27.693Z,1005.66
2018-03-23T00:20:27.614Z,1005.65
2018-03-23T00:21:27.538Z,1005.64
2018-03-23T00:22:27.463Z,1005.62
2018-03-23T00:23:27.383Z,1005.62
2018-03-23T00:24:27.313Z,1005.57
2018-03-23T00:25:27.222Z,1005.61
2018-03-23T00:26:27.144Z,1005.52
2018-03-23T00:27:27.064Z,1005.56
2018-03-23T00:28:26.984Z,1005.54
2018-03-23T00:29:26.909Z,1005.55
2018-03-23T00:30:26.829Z,1005.54
2018-03-23T00:31:26.748Z,1005.57
2018-03-23T00:32:26.671Z,1005.55
2018-03-23T00:33:26.590Z,1005.54
2018-03-23T00:34:26.513Z,1005.53
2018-03-23T00:35:26.433Z,1005.59
2018-03-23T00:36:26.352Z,1005.52
2018-03-23T00:37:26.277Z,1005.52
2018-03-23T00:38:26.203Z,1005.54
2018-03-23T00:39:26.123Z,1005.53
2018-03-23T00:40:26.043Z,1005.58
2018-03-23T00:41:25.961Z,1005.54
2018-03-23T00:42:25.881Z,1005.50
2018-03-23T00:43:25.806Z,1005.48
2018-03-23T00:44:25.727Z,1005.50
2018-03-23T00:45:25.647Z,1005.51
2018-03-23T00:46:25.567Z,1005.52
2018-03-23T00:47:25.491Z,1005.50
2018-03-23T00:48:25.409Z,1005.50
2018-03-23T00:49:25.330Z,1005.50
2018-03-23T00:50:25.254Z,1005.51
2018-03-23T00:51:25.172Z,1005.47
2018-03-23T00:52:25.091Z,1005.49
2018-03-23T00:53:25.015Z,1005.49
2018-03-23T00:54:24.936Z,1005.43
2018-03-23T00:55:24.863Z,1005.46
2018-03-23T00:56:24.777Z,1005.45
2018-03-23T00:57:24.708Z,1005.41
2018-03-23T00:58:24.620Z,1005.39
2018-03-23T00:59:24.542Z,1005.42
2018-03-23T01:00:24.464Z,1005.44
2018-03-23T01:01:24.383Z,1005.43
2018-03-23T01:02:24.308Z,1005.34
2018-03-23T01:03:24.228Z,1005.39
2018-03-23T01:04:24.146Z,1005.34
2018-03-23T01:05:24.070Z,1005.35
2018-03-23T01:06:23.996Z,1005.37
2018-03-23T01:07:23.913Z,1005.36
2018-03-23T01:08:23.835Z,1005.39
2018-03-23T01:09:23.757Z,1005.34
2018-03-23T01:10:23.677Z,1005.36
2018-03-23T01:11:23.598Z,1005.35
2018-03-23T01:12:23.519Z,1005.34
2018-03-23T01:13:23.441Z,1005.34
2018-03-23T01:14:23.362Z,1005.32
2018-03-23T01:15:23.284Z,1005.33
2018-03-23T01:16:23.203Z,1005.33
2018-03-23T01:17:23.126Z,1005.30
2018-03-23T01:18:23.047Z,1005.28
2018-03-23T01:19:22.975Z,1005.27
2018-03-23T01:20:22.890Z,1005.22
2018-03-23T01:21:22.810Z,1005.23
2018-03-23T01:22:22.732Z,1005.18
2018-03-23T01:23:22.654Z,1005.18
2018-03-23T01:24:22.584Z,1005.18
2018-03-23T01:25:22.506Z,1005.20
2018-03-23T01:26:22.418Z,1005.18
2018-03-23T01:27:22.340Z,1005.18
2018-03-23T01:28:22.260Z,1005.17
2018-03-23T01:29:22.182Z,1005.14
2018-03-23T01:30:22.103Z,1005.13
2018-03-23T01:31:22.024Z,1005.17
2018-03-23T01:32:21.951Z,1005.16
2018-03-23T01:33:21.866Z,1005.14
2018-03-23T01:34:21.789Z,1005.08
2018-03-23T01:35:21.709Z,1005.07
2018-03-23T01:36:21.632Z,1005.05
2018-03-23T01:37:21.553Z,1005.08
2018-03-23T01:38:21.517Z,1005.08
2018-03-23T01:39:21.396Z,1005.04
2018-03-23T01:40:21.318Z,1005.05
2018-03-23T01:41:21.238Z,1005.02
2018-03-23T01:42:21.160Z,1005.04
2018-03-23T01:43:21.085Z,1005.05
2018-03-23T01:44:21.004Z,1005.03
2018-03-23T01:45:20.922Z,1005.01
2018-03-23T01:46:20.845Z,1004.99
2018-03-23T01:47:20.766Z,1004.95
2018-03-23T01:48:20.686Z,1004.99
2018-03-23T01:49:20.609Z,1004.96
2018-03-23T01:50:20.529Z,1004.94
2018-03-23T01:51:20.450Z,1004.92
2018-03-23T01:52:20.373Z,1004.97
2018-03-23T01:53:20.293Z,1004.95
2018-03-23T01:54:20.214Z,1004.91
2018-03-23T01:55:20.137Z,1004.87
2018-03-23T01:56:20.051Z,1004.86
2018-03-23T01:57:19.978Z,1004.89
2018-03-23T01:58:19.900Z,1004.86
2018-03-23T01:59:19.827Z,1004.84
2018-03-23T02:00:19.744Z,1004.83
2018-03-23T02:01:19.667Z,1004.79
2018-03-23T02:02:19.584Z,1004.75
2018-03-23T02:03:19.557Z,1004.75
2018-03-23T02:04:19.426Z,1004.79
2018-03-23T02:05:19.350Z,1004.76
2018-03-23T02:06:19.269Z,1004.80
2018-03-23T02:07:19.197Z,1004.80
2018-03-23T02:08:19.112Z,1004.78
2018-03-23T02:09:19.035Z,1004.75
2018-03-23T02:10:18.955Z,1004.74
2018-03-23T02:11:18.875Z,1004.76
2018-03-23T02:12:18.796Z,1004.73
2018-03-23T02:13:18.717Z,1004.74
2018-03-23T02:14:18.642Z,1004.69
2018-03-23T02:15:18.560Z,1004.66
2018-03-23T02:16:18.481Z,1004.66
2018-03-23T02:17:18.402Z,1004.62
2018-03-23T02:18:18.325Z,1004.57
2018-03-23T02:19:18.245Z,1004.60
2018-03-23T02:20:18.165Z,1004.56
2018-03-23T02:21:18.087Z,1004.60
2018-03-23T02:22:18.008Z,1004.57
2018-03-23T02:23:17.930Z,1004.56
2018-03-23T02:24:17.851Z,1004.60
2018-03-23T02:25:17.772Z,1004.58
2018-03-23T02:26:17.695Z,1004.58
2018-03-23T02:27:17.615Z,1004.54
2018-03-23T02:28:17.536Z,1004.52
2018-03-23T02:29:17.458Z,1004.57
2018-03-23T02:30:17.379Z,1004.55
2018-03-23T02:31:17.300Z,1004.57
2018-03-23T02:32:17.220Z,1004.54
2018-03-23T02:33:17.148Z,1004.53
2018-03-23T02:34:17.068Z,1004.49
2018-03-23T02:35:16.987Z,1004.48
2018-03-23T02:36:16.903Z,1004.50
2018-03-23T02:37:16.828Z,1004.49
2018-03-23T02:38:16.747Z,1004.47
2018-03-23T02:39:16.671Z,1004.42
2018-03-23T02:40:16.597Z,1004.41
2018-03-23T02:41:16.513Z,1004.43
2018-03-23T02:42:16.432Z,1004.41
2018-03-23T02:43:16.354Z,1004.42
2018-03-23T02:44:16.273Z,1004.38
2018-03-23T02:45:16.194Z,1004.36
2018-03-23T02:46:16.117Z,1004.37
2018-03-23T02:47:16.037Z,1004.35
2018-03-23T02:48:15.959Z,1004.38
2018-03-23T02:49:15.882Z,1004.35
2018-03-23T02:50:15.801Z,1004.33
2018-03-23T02:51:15.729Z,1004.28
2018-03-23T02:52:15.647Z,1004.30
2018-03-23T02:53:15.566Z,1004.27
2018-03-23T02:54:15.484Z,1004.29
2018-03-23T02:55:15.410Z,1004.31
2018-03-23T02:56:15.327Z,1004.27
2018-03-23T02:57:15.249Z,1004.26
2018-03-23T02:58:15.171Z,1004.29
2018-03-23T02:59:15.122Z,1004.34
2018-03-23T03:00:15.016Z,1004.31
2018-03-23T03:01:14.938Z,1004.31
2018-03-23T03:02:14.854Z,1004.30
2018-03-23T03:03:14.776Z,1004.29
2018-03-23T03:04:14.697Z,1004.34
2018-03-23T03:05:14.624Z,1004.27
2018-03-23T03:06:14.543Z,1004.26
2018-03-23T03:07:14.467Z,1004.30
2018-03-23T03:08:14.379Z,1004.30
2018-03-23T03:09:14.304Z,1004.24
2018-03-23T03:10:14.224Z,1004.22
2018-03-23T03:11:14.142Z,1004.24
2018-03-23T03:12:14.076Z,1004.21
2018-03-23T03:13:13.986Z,1004.19
2018-03-23T03:14:13.907Z,1004.21
2018-03-23T03:15:13.830Z,1004.16
2018-03-23T03:16:13.787Z,1004.15
2018-03-23T03:17:13.669Z,1004.11
2018-03-23T03:18:13.592Z,1004.11
2018-03-23T03:19:13.513Z,1004.10
2018-03-23T03:20:13.433Z,1004.08
2018-03-23T03:21:13.357Z,1004.10
2018-03-23T03:22:13.275Z,1004.07
2018-03-23T03:23:13.196Z,1004.05
2018-03-23T03:24:13.122Z,1004.08
2018-03-23T03:25:13.037Z,1004.05
2018-03-23T03:26:12.981Z,1004.00
2018-03-23T03:27:12.883Z,1004.00
2018-03-23T03:28:12.804Z,1004.02
2018-03-23T03:29:12.725Z,1004.03
2018-03-23T03:30:12.646Z,1003.99
2018-03-23T03:31:12.569Z,1004.00
2018-03-23T03:32:12.487Z,1004.00
2018-03-23T03:33:12.408Z,1003.98
2018-03-23T03:34:12.330Z,1004.00
2018-03-23T03:35:12.251Z,1004.04
2018-03-23T03:36:12.168Z,1004.01
2018-03-23T03:37:12.092Z,1003.98
2018-03-23T03:38:12.014Z,1003.98
2018-03-23T03:39:11.934Z,1003.96
2018-03-23T03:40:11.854Z,1003.96
2018-03-23T03:41:11.778Z,1003.94
2018-03-23T03:42:11.696Z,1003.94
2018-03-23T03:43:11.618Z,1003.90
2018-03-23T03:44:11.538Z,1003.91
2018-03-23T03:45:11.460Z,1003.91
2018-03-23T03:46:11.381Z,1003.87
2018-03-23T03:47:11.304Z,1003.87
2018-03-23T03:48:11.221Z,1003.86
2018-03-23T03:49:11.148Z,1003.85
2018-03-23T03:50:11.067Z,1003.88
2018-03-23T03:51:10.986Z,1003.88
2018-03-23T03:52:10.906Z,1003.87
2018-03-23T03:53:10.827Z,1003.87
2018-03-23T03:54:10.747Z,1003.86
2018-03-23T03:55:10.669Z,1003.88
2018-03-23T03:56:10.597Z,1003.86
2018-03-23T03:57:10.511Z,1003.81
2018-03-23T03:58:10.431Z,1003.79
2018-03-23T03:59:10.353Z,1003.81
2018-03-23T04:00:10.273Z,1003.82
2018-03-23T04:01:10.192Z,1003.73
2018-03-23T04:02:10.116Z,1003.78
2018-03-23T04:03:10.037Z,1003.79
2018-03-23T04:04:09.956Z,1003.75
2018-03-23T04:05:09.906Z,1003.74
2018-03-23T04:06:09.798Z,1003.73
2018-03-23T04:07:09.723Z,1003.72
2018-03-23T04:08:09.643Z,1003.69
2018-03-23T04:09:09.561Z,1003.73
2018-03-23T04:10:09.483Z,1003.68
2018-03-23T04:11:09.404Z,1003.67
2018-03-23T04:12:09.330Z,1003.65
2018-03-23T04:13:09.245Z,1003.62
2018-03-23T04:14:09.176Z,1003.64
2018-03-23T04:15:09.087Z,1003.62
2018-03-23T04:16:09.006Z,1003.58
2018-03-23T04:17:08.928Z,1003.57
2018-03-23T04:18:08.851Z,1003.61
2018-03-23T04:19:08.769Z,1003.59
2018-03-23T04:20:08.696Z,1003.59
2018-03-23T04:21:08.612Z,1003.59
2018-03-23T04:22:08.532Z,1003.56
2018-03-23T04:23:08.453Z,1003.52
2018-03-23T04:24:08.373Z,1003.51
2018-03-23T04:25:08.298Z,1003.54
2018-03-23T04:26:08.214Z,1003.53
2018-03-23T04:27:08.137Z,1003.55
2018-03-23T04:28:08.051Z,1003.54
2018-03-23T04:29:07.977Z,1003.54
2018-03-23T04:30:07.895Z,1003.57
2018-03-23T04:31:07.819Z,1003.51
2018-03-23T04:32:07.738Z,1003.52
2018-03-23T04:33:07.664Z,1003.50
2018-03-23T04:34:07.583Z,1003.49
2018-03-23T04:35:07.501Z,1003.52
2018-03-23T04:36:07.421Z,1003.52
2018-03-23T04:37:07.342Z,1003.54
2018-03-23T04:38:07.266Z,1003.53
2018-03-23T04:39:07.184Z,1003.52
2018-03-23T04:40:07.105Z,1003.55
2018-03-23T04:41:07.026Z,1003.53
2018-03-23T04:42:06.947Z,1003.56
2018-03-23T04:43:06.868Z,1003.53
2018-03-23T04:44:06.787Z,1003.53
2018-03-23T04:45:06.708Z,1003.49
2018-03-23T04:46:06.630Z,1003.51
2018-03-23T04:47:06.551Z,1003.54
2018-03-23T04:48:06.470Z,1003.54
2018-03-23T04:49:06.389Z,1003.51
2018-03-23T04:50:06.312Z,1003.54
2018-03-23T04:51:06.237Z,1003.51
2018-03-23T04:52:06.154Z,1003.53
2018-03-23T04:53:06.073Z,1003.50
2018-03-23T04:54:05.994Z,1003.50
2018-03-23T04:55:05.916Z,1003.50
2018-03-23T04:56:05.837Z,1003.47
2018-03-23T04:57:05.755Z,1003.48
2018-03-23T04:58:05.679Z,1003.46
2018-03-23T04:59:05.598Z,1003.45
2018-03-23T05:00:05.513Z,1003.44
2018-03-23T05:01:05.441Z,1003.41
2018-03-23T05:02:05.361Z,1003.41
2018-03-23T05:03:05.286Z,1003.38
2018-03-23T05:04:05.201Z,1003.37
2018-03-23T05:05:05.121Z,1003.44
2018-03-23T05:06:05.041Z,1003.40
2018-03-23T05:07:04.961Z,1003.34
2018-03-23T05:08:04.893Z,1003.37
2018-03-23T05:09:04.803Z,1003.37
2018-03-23T05:10:04.735Z,1003.37
2018-03-23T05:11:04.644Z,1003.33
2018-03-23T05:12:04.571Z,1003.28
2018-03-23T05:13:04.487Z,1003.33
2018-03-23T05:14:04.406Z,1003.32
2018-03-23T05:15:04.329Z,1003.32
2018-03-23T05:16:04.248Z,1003.35
2018-03-23T05:17:04.168Z,1003.33
2018-03-23T05:18:04.089Z,1003.29
2018-03-23T05:19:04.009Z,1003.33
2018-03-23T05:20:03.928Z,1003.33
2018-03-23T05:21:03.851Z,1003.33
2018-03-23T05:22:03.769Z,1003.32
2018-03-23T05:23:03.691Z,1003.29
2018-03-23T05:24:03.612Z,1003.28
2018-03-23T05:25:03.535Z,1003.31
2018-03-23T05:26:03.454Z,1003.31
2018-03-23T05:27:03.376Z,1003.32
2018-03-23T05:28:03.293Z,1003.33
2018-03-23T05:29:03.217Z,1003.31
2018-03-23T05:30:03.166Z,1003.33
2018-03-23T05:31:03.055Z,1003.34
2018-03-23T05:32:02.979Z,1003.30
2018-03-23T05:33:02.898Z,1003.28
2018-03-23T05:34:02.818Z,1003.29
2018-03-23T05:35:02.737Z,1003.29
2018-03-23T05:36:02.658Z,1003.28
2018-03-23T05:37:02.583Z,1003.29
2018-03-23T05:38:02.503Z,1003.29
2018-03-23T05:39:02.429Z,1003.33
2018-03-23T05:40:02.339Z,1003.35
2018-03-23T05:41:02.259Z,1003.34
2018-03-23T05:42:02.179Z,1003.33
2018-03-23T05:43:02.102Z,1003.30
2018-03-23T05:44:02.022Z,1003.28
2018-03-23T05:45:01.944Z,1003.27
2018-03-23T05:46:01.865Z,1003.23
2018-03-23T05:47:01.782Z,1003.25
2018-03-23T05:48:01.705Z,1003.24
2018-03-23T05:49:01.624Z,1003.24
2018-03-23T05:50:01.593Z,1003.27
2018-03-23T05:51:01.478Z,1003.22
2018-03-23T05:52:01.384Z,1003.29
2018-03-23T05:53:01.308Z,1003.26
2018-03-23T05:54:01.228Z,1003.26
2018-03-23T05:55:01.148Z,1003.27
2018-03-23T05:56:01.068Z,1003.29
2018-03-23T05:57:00.986Z,1003.23
2018-03-23T05:58:00.908Z,1003.27
2018-03-23T05:59:00.828Z,1003.26
2018-03-23T06:00:00.749Z,1003.28
2018-03-23T06:01:00.671Z,1003.24
2018-03-23T06:02:00.606Z,1003.25
2018-03-23T06:03:00.512Z,1003.25
2018-03-23T06:04:00.436Z,1003.24
2018-03-23T06:05:00.354Z,1003.27
2018-03-23T06:06:00.276Z,1003.26
2018-03-23T06:07:00.192Z,1003.29
2018-03-23T06:08:00.113Z,1003.25
2018-03-23T06:09:00.034Z,1003.23
2018-03-23T06:09:59.960Z,1003.28
2018-03-23T06:10:59.877Z,1003.29
2018-03-23T06:11:59.796Z,1003.27
2018-03-23T06:12:59.716Z,1003.25
2018-03-23T06:13:59.664Z,1003.25
2018-03-23T06:14:59.557Z,1003.29
2018-03-23T06:15:59.475Z,1003.27
2018-03-23T06:16:59.400Z,1003.28
2018-03-23T06:17:59.324Z,1003.25
2018-03-23T06:18:59.241Z,1003.27
2018-03-23T06:19:59.159Z,1003.27
2018-03-23T06:20:59.081Z,1003.26
2018-03-23T06:21:59.005Z,1003.24
2018-03-23T06:22:58.926Z,1003.22
2018-03-23T06:23:58.844Z,1003.23
2018-03-23T06:24:58.763Z,1003.22
2018-03-23T06:25:58.692Z,1003.21
2018-03-23T06:26:58.606Z,1003.23
2018-03-23T06:27:58.576Z,1003.18
2018-03-23T06:28:58.446Z,1003.21
2018-03-23T06:29:58.368Z,1003.23
2018-03-23T06:30:58.288Z,1003.23
2018-03-23T06:31:58.207Z,1003.20
2018-03-23T06:32:58.130Z,1003.19
2018-03-23T06:33:58.057Z,1003.18
2018-03-23T06:34:57.973Z,1003.18
2018-03-23T06:35:57.893Z,1003.18
2018-03-23T06:36:57.811Z,1003.18
2018-03-23T06:37:57.732Z,1003.19
2018-03-23T06:38:57.653Z,1003.17
2018-03-23T06:39:57.574Z,1003.14
2018-03-23T06:40:57.494Z,1003.20
2018-03-23T06:41:57.419Z,1003.19
2018-03-23T06:42:57.337Z,1003.19
2018-03-23T06:43:57.260Z,1003.20
2018-03-23T06:44:57.178Z,1003.18
2018-03-23T06:45:57.101Z,1003.18
2018-03-23T06:46:57.021Z,1003.21
2018-03-23T06:47:56.942Z,1003.20
2018-03-23T06:48:56.860Z,1003.22
2018-03-23T06:49:56.782Z,1003.21
2018-03-23T06:50:56.703Z,1003.24
2018-03-23T06:51:56.625Z,1003.25
2018-03-23T06:52:56.548Z,1003.22
2018-03-23T06:53:56.465Z,1003.23
2018-03-23T06:54:56.387Z,1003.21
2018-03-23T06:55:56.304Z,1003.18
2018-03-23T06:56:56.227Z,1003.18
2018-03-23T06:57:56.147Z,1003.17
2018-03-23T06:58:56.069Z,1003.17
2018-03-23T06:59:55.990Z,1003.17
2018-03-23T07:00:55.910Z,1003.15
2018-03-23T07:01:55.835Z,1003.13
2018-03-23T07:02:55.752Z,1003.14
2018-03-23T07:03:55.673Z,1003.17
2018-03-23T07:04:55.595Z,1003.14
2018-03-23T07:05:55.516Z,1003.14
2018-03-23T07:06:55.436Z,1003.14
2018-03-23T07:07:55.357Z,1003.17
2018-03-23T07:08:55.274Z,1003.17
2018-03-23T07:09:55.212Z,1003.17
2018-03-23T07:10:55.145Z,1003.16
2018-03-23T07:11:55.039Z,1003.14
2018-03-23T07:12:54.962Z,1003.17
2018-03-23T07:13:54.884Z,1003.10
2018-03-23T07:14:54.804Z,1003.10
2018-03-23T07:15:54.723Z,1003.14
2018-03-23T07:16:54.644Z,1003.13
2018-03-23T07:17:54.563Z,1003.12
2018-03-23T07:18:54.487Z,1003.12
2018-03-23T07:19:54.410Z,1003.12
2018-03-23T07:20:54.328Z,1003.12
2018-03-23T07:21:54.263Z,1003.13
2018-03-23T07:22:54.171Z,1003.11
2018-03-23T07:23:54.090Z,1003.14
2018-03-23T07:24:54.017Z,1003.12
2018-03-23T07:25:53.939Z,1003.16
2018-03-23T07:26:53.860Z,1003.16
2018-03-23T07:27:53.775Z,1003.19
2018-03-23T07:28:53.696Z,1003.17
2018-03-23T07:29:53.617Z,1003.16
2018-03-23T07:30:53.538Z,1003.15
2018-03-23T07:31:53.463Z,1003.19
2018-03-23T07:32:53.385Z,1003.15
2018-03-23T07:33:53.302Z,1003.15
2018-03-23T07:34:53.224Z,1003.15
2018-03-23T07:35:53.144Z,1003.18
2018-03-23T07:36:53.067Z,1003.19
2018-03-23T07:37:52.986Z,1003.16
2018-03-23T07:38:52.909Z,1003.12
2018-03-23T07:39:52.826Z,1003.12
2018-03-23T07:40:52.749Z,1003.15
2018-03-23T07:41:52.668Z,1003.13
2018-03-23T07:42:52.589Z,1003.14
2018-03-23T07:43:52.510Z,1003.16
2018-03-23T07:44:52.432Z,1003.15
2018-03-23T07:45:52.352Z,1003.15
2018-03-23T07:46:52.273Z,1003.16
2018-03-23T07:47:52.198Z,1003.12
2018-03-23T07:48:52.115Z,1003.14
2018-03-23T07:49:52.037Z,1003.09
2018-03-23T07:50:51.958Z,1003.10
2018-03-23T07:51:51.880Z,1003.14
2018-03-23T07:52:51.797Z,1003.08
2018-03-23T07:53:51.725Z,1003.09
2018-03-23T07:54:51.640Z,1003.07
2018-03-23T07:55:51.567Z,1003.06
2018-03-23T07:56:51.484Z,1003.07
2018-03-23T07:57:51.404Z,1003.11
2018-03-23T07:58:51.326Z,1003.09
2018-03-23T07:59:51.246Z,1003.04
2018-03-23T08:00:51.167Z,1003.05
2018-03-23T08:01:51.089Z,1003.10
2018-03-23T08:02:51.010Z,1003.10
2018-03-23T08:03:50.933Z,1003.07
2018-03-23T08:04:50.851Z,1003.06
2018-03-23T08:05:50.771Z,1003.05
2018-03-23T08:06:50.695Z,1003.02
2018-03-23T08:07:50.614Z,1003.05
2018-03-23T08:08:50.536Z,1003.04
2018-03-23T08:09:50.457Z,1003.01
2018-03-23T08:10:50.394Z,1002.99
2018-03-23T08:11:50.298Z,1003.00
2018-03-23T08:12:50.220Z,1003.00
2018-03-23T08:13:50.143Z,1003.01
2018-03-23T08:14:50.064Z,1002.99
2018-03-23T08:15:49.984Z,1002.96
2018-03-23T08:16:49.911Z,1003.01
2018-03-23T08:17:49.837Z,1003.01
2018-03-23T08:18:49.748Z,1003.01
2018-03-23T08:19:49.671Z,1003.03
2018-03-23T08:20:49.590Z,1003.00
2018-03-23T08:21:49.513Z,1002.99
2018-03-23T08:22:49.435Z,1002.98
2018-03-23T08:23:49.355Z,1002.94
2018-03-23T08:24:49.275Z,1002.93
2018-03-23T08:25:49.199Z,1002.96
2018-03-23T08:26:49.117Z,1002.94
2018-03-23T08:27:49.040Z,1002.93
2018-03-23T08:28:48.960Z,1002.92
2018-03-23T08:29:48.883Z,1002.91
2018-03-23T08:30:48.804Z,1002.88
2018-03-23T08:31:48.727Z,1002.86
2018-03-23T08:32:48.649Z,1002.84
2018-03-23T08:33:48.570Z,1002.78
2018-03-23T08:34:48.493Z,1002.79
2018-03-23T08:35:48.416Z,1002.76
2018-03-23T08:36:48.335Z,1002.80
2018-03-23T08:37:48.258Z,1002.78
2018-03-23T08:38:48.184Z,1002.75
2018-03-23T08:39:48.102Z,1002.74
2018-03-23T08:40:48.027Z,1002.74
2018-03-23T08:41:47.961Z,1002.73
2018-03-23T08:42:47.873Z,1002.77
2018-03-23T08:43:47.794Z,1002.71
2018-03-23T08:44:47.717Z,1002.69
2018-03-23T08:45:47.642Z,1002.64
2018-03-23T08:46:47.569Z,1002.67
2018-03-23T08:47:47.487Z,1002.66
2018-03-23T08:48:47.414Z,1002.64
2018-03-23T08:49:47.330Z,1002.64
2018-03-23T08:50:47.260Z,1002.68
2018-03-23T08:51:47.181Z,1002.67
2018-03-23T08:52:47.106Z,1002.67
2018-03-23T08:53:47.031Z,1002.70
2018-03-23T08:54:46.956Z,1002.66
2018-03-23T08:55:46.879Z,1002.66
2018-03-23T08:56:46.804Z,1002.66
2018-03-23T08:57:46.731Z,1002.65
2018-03-23T08:58:46.654Z,1002.66
2018-03-23T08:59:46.581Z,1002.67
2018-03-23T09:00:46.515Z,1002.60
2018-03-23T09:01:46.427Z,1002.59
2018-03-23T09:02:46.357Z,1002.62
2018-03-23T09:03:46.277Z,1002.58
2018-03-23T09:04:46.206Z,1002.58
2018-03-23T09:05:46.128Z,1002.56
2018-03-23T09:06:46.052Z,1002.56
2018-03-23T09:07:45.983Z,1002.52
2018-03-23T09:08:45.904Z,1002.47
2018-03-23T09:09:45.828Z,1002.47
2018-03-23T09:10:45.753Z,1002.45
2018-03-23T09:11:45.674Z,1002.44
2018-03-23T09:12:45.600Z,1002.44
2018-03-23T09:13:45.528Z,1002.45
2018-03-23T09:14:45.452Z,1002.42
2018-03-23T09:15:45.388Z,1002.42
2018-03-23T09:16:45.307Z,1002.40
2018-03-23T09:17:45.235Z,1002.39
2018-03-23T09:18:45.162Z,1002.32
2018-03-23T09:19:45.078Z,1002.36
2018-03-23T09:20:45.004Z,1002.30
2018-03-23T09:21:44.929Z,1002.28
2018-03-23T09:22:44.857Z,1002.29
2018-03-23T09:23:44.780Z,1002.30
2018-03-23T09:24:44.706Z,1002.24
2018-03-23T09:25:44.631Z,1002.29
2018-03-23T09:26:44.559Z,1002.25
2018-03-23T09:27:44.480Z,1002.27
2018-03-23T09:28:44.406Z,1002.26
2018-03-23T09:29:44.334Z,1002.16
2018-03-23T09:30:44.257Z,1002.18
2018-03-23T09:31:44.182Z,1002.15
2018-03-23T09:32:44.107Z,1002.17
2018-03-23T09:33:44.032Z,1002.16
2018-03-23T09:34:43.961Z,1002.16
2018-03-23T09:35:43.884Z,1002.16
2018-03-23T09:36:43.809Z,1002.15
2018-03-23T09:37:43.735Z,1002.13
2018-03-23T09:38:43.664Z,1002.14
2018-03-23T09:39:43.585Z,1002.11
2018-03-23T09:40:43.510Z,1002.11
2018-03-23T09:41:43.434Z,1002.15
2018-03-23T09:42:43.364Z,1002.10
2018-03-23T09:43:43.286Z,1002.06
2018-03-23T09:44:43.211Z,1002.01
2018-03-23T09:45:43.141Z,1001.97
2018-03-23T09:46:43.109Z,1001.98
2018-03-23T09:47:42.987Z,1001.99
2018-03-23T09:48:42.933Z,1001.93
2018-03-23T09:49:42.836Z,1001.92
2018-03-23T09:50:42.764Z,1001.92
2018-03-23T09:51:42.684Z,1001.93
2018-03-23T09:52:42.615Z,1001.89
2018-03-23T09:53:42.537Z,1001.85
2018-03-23T09:54:42.461Z,1001.89
2018-03-23T09:55:42.388Z,1001.87
2018-03-23T09:56:42.312Z,1001.85
2018-03-23T09:57:42.234Z,1001.87
2018-03-23T09:58:42.161Z,1001.83
2018-03-23T09:59:42.083Z,1001.83
2018-03-23T10:00:42.012Z,1001.81
2018-03-23T10:01:41.938Z,1001.82
2018-03-23T10:02:41.861Z,1001.77
2018-03-23T10:03:41.837Z,1001.72
2018-03-23T10:04:41.711Z,1001.76
2018-03-23T10:05:41.635Z,1001.73
2018-03-23T10:06:41.559Z,1001.70
2018-03-23T10:07:41.484Z,1001.66
2018-03-23T10:08:41.409Z,1001.65
2018-03-23T10:09:41.333Z,1001.70
2018-03-23T10:10:41.257Z,1001.68
2018-03-23T10:11:41.181Z,1001.66
2018-03-23T10:12:41.108Z,1001.66
2018-03-23T10:13:41.031Z,1001.69
2018-03-23T10:14:40.954Z,1001.66
2018-03-23T10:15:40.882Z,1001.66
2018-03-23T10:16:40.804Z,1001.64
2018-03-23T10:17:40.732Z,1001.61
2018-03-23T10:18:40.654Z,1001.59
2018-03-23T10:19:40.575Z,1001.58
2018-03-23T10:20:40.558Z,1001.55
2018-03-23T10:21:40.428Z,1001.56
2018-03-23T10:22:40.350Z,1001.52
2018-03-23T10:23:40.273Z,1001.48
2018-03-23T10:24:40.197Z,1001.51
2018-03-23T10:25:40.121Z,1001.46
2018-03-23T10:26:40.044Z,1001.47
2018-03-23T10:27:39.968Z,1001.43
2018-03-23T10:28:39.907Z,1001.39
2018-03-23T10:29:39.818Z,1001.41
2018-03-23T10:30:39.743Z,1001.36
2018-03-23T10:31:39.664Z,1001.36
2018-03-23T10:32:39.592Z,1001.37
2018-03-23T10:33:39.514Z,1001.35
2018-03-23T10:34:39.441Z,1001.33
2018-03-23T10:35:39.363Z,1001.31
2018-03-23T10:36:39.290Z,1001.35
2018-03-23T10:37:39.217Z,1001.36
2018-03-23T10:38:39.143Z,1001.27
2018-03-23T10:39:39.064Z,1001.30
2018-03-23T10:40:38.988Z,1001.29
2018-03-23T10:41:38.911Z,1001.33
2018-03-23T10:42:38.840Z,1001.30
2018-03-23T10:43:38.766Z,1001.26
2018-03-23T10:44:38.694Z,1001.19
2018-03-23T10:45:38.618Z,1001.22
2018-03-23T10:46:38.541Z,1001.16
2018-03-23T10:47:38.471Z,1001.14
2018-03-23T10:48:38.390Z,1001.15
2018-03-23T10:49:38.317Z,1001.12
2018-03-23T10:50:38.242Z,1001.11
2018-03-23T10:51:38.163Z,1001.08
2018-03-23T10:52:38.135Z,1001.07
2018-03-23T10:53:38.023Z,1001.07
2018-03-23T10:54:37.946Z,1001.03
2018-03-23T10:55:37.867Z,1001.03
2018-03-23T10:56:37.796Z,1001.05
2018-03-23T10:57:37.733Z,1001.02
2018-03-23T10:58:37.650Z,1001.00
2018-03-23T10:59:37.574Z,1000.95
2018-03-23T11:00:37.499Z,1000.98
2018-03-23T11:01:37.428Z,1001.02
2018-03-23T11:02:37.353Z,1001.04
2018-03-23T11:03:37.277Z,1001.02
2018-03-23T11:04:37.207Z,1001.02
2018-03-23T11:05:37.132Z,1001.00
2018-03-23T11:06:37.057Z,1000.99
2018-03-23T11:07:36.984Z,1000.91
2018-03-23T11:08:36.911Z,1000.92
2018-03-23T11:09:36.837Z,1000.88
2018-03-23T11:10:36.764Z,1000.88
2018-03-23T11:11:36.691Z,1000.84
2018-03-23T11:12:36.618Z,1000.80
2018-03-23T11:13:36.556Z,1000.84
2018-03-23T11:14:36.474Z,1000.80
2018-03-23T11:15:36.400Z,1000.90
2018-03-23T11:16:36.330Z,1000.82
2018-03-23T11:17:36.254Z,1000.84
2018-03-23T11:18:36.182Z,1000.80
2018-03-23T11:19:36.110Z,1000.77
2018-03-23T11:20:36.040Z,1000.73
2018-03-23T11:21:35.967Z,1000.71
2018-03-23T11:22:35.900Z,1000.73
2018-03-23T11:23:35.826Z,1000.77
2018-03-23T11:24:35.756Z,1000.72
2018-03-23T11:25:35.683Z,1000.70
2018-03-23T11:26:35.612Z,1000.67
2018-03-23T11:27:35.541Z,1000.62
2018-03-23T11:28:35.476Z,1000.59
2018-03-23T11:29:35.398Z,1000.56
2018-03-23T11:30:35.331Z,1000.58
2018-03-23T11:31:35.258Z,1000.53
2018-03-23T11:32:35.186Z,1000.55
2018-03-23T11:33:35.116Z,1000.53
2018-03-23T11:34:35.051Z,1000.51
2018-03-23T11:35:34.972Z,1000.53
2018-03-23T11:36:34.902Z,1000.47
2018-03-23T11:37:34.830Z,1000.48
2018-03-23T11:38:34.760Z,1000.46
2018-03-23T11:39:34.686Z,1000.45
2018-03-23T11:40:34.617Z,1000.42
2018-03-23T11:41:34.545Z,1000.42
2018-03-23T11:42:34.473Z,1000.38
2018-03-23T11:43:34.399Z,1000.40
2018-03-23T11:44:34.328Z,1000.38
2018-03-23T11:45:34.314Z,1000.35
2018-03-23T11:46:34.184Z,1000.34
2018-03-23T11:47:34.112Z,1000.31
2018-03-23T11:48:34.041Z,1000.29
2018-03-23T11:49:33.969Z,1000.27
2018-03-23T11:50:33.896Z,1000.27
2018-03-23T11:51:33.829Z,1000.25
2018-03-23T11:52:33.750Z,1000.22
2018-03-23T11:53:33.680Z,1000.21
2018-03-23T11:54:33.608Z,1000.20
2018-03-23T11:55:33.535Z,1000.22
2018-03-23T11:56:33.464Z,1000.22
2018-03-23T11:57:33.389Z,1000.22
2018-03-23T11:58:33.316Z,1000.17
2018-03-23T11:59:33.245Z,1000.17
2018-03-23T12:00:33.172Z,1000.11
2018-03-23T12:01:33.102Z,1000.09
2018-03-23T12:02:33.026Z,1000.03
2018-03-23T12:03:32.957Z,1000.00
2018-03-23T12:04:32.884Z,999.98